Time;durP1;ratioP1;P1;durP2;ratioP2;P2;SDS_P1;SDS_P2;PMS_P1;PMS_P2;Temp;Humidity;BMP_temperature;BMP_pressure;BME280_temperature;BME280_humidity;BME280_pressure;Samples;Min_cycle;Max_cycle;Signal;HPM_P1;HPM_P2
2022/08/23 00:02:32;;;;;;;2.28;1.33;;;29.40;49.80;;;;;;10475471;28;20044;-44
2022/08/23 00:07:36;;;;;;;2.30;1.20;;;29.40;49.90;;;;;;10488910;28;20460;-39
2022/08/23 00:12:39;;;;;;;3.78;1.60;;;29.30;49.90;;;;;;10480965;28;20378;-39
2022/08/23 00:17:42;;;;;;;4.53;1.50;;;29.30;50.00;;;;;;10486732;28;20087;-37
2022/08/23 00:22:46;;;;;;;1.98;1.50;;;29.30;50.10;;;;;;10495361;28;20048;-41
2022/08/23 00:27:48;;;;;;;2.70;1.23;;;29.30;50.50;;;;;;10492531;28;20429;-42
2022/08/23 00:32:50;;;;;;;2.25;1.40;;;29.30;50.20;;;;;;10497026;28;20076;-42
2022/08/23 00:37:53;;;;;;;3.28;1.63;;;29.20;50.10;;;;;;10485959;28;20054;-44
2022/08/23 00:48:22;;;;;;;3.30;1.70;;;29.10;50.10;;;;;;10486740;28;20131;-43
2022/08/23 00:53:30;;;;;;;4.32;1.23;;;29.10;50.30;;;;;;10494211;28;20793;-42
2022/08/23 00:58:33;;;;;;;3.83;1.45;;;29.10;50.30;;;;;;10480690;28;20130;-43
2022/08/23 01:03:37;;;;;;;1.63;1.40;;;29.00;50.20;;;;;;10489620;28;20045;-42
2022/08/23 01:08:44;;;;;;;2.17;1.50;;;29.00;50.30;;;;;;10480432;28;20042;-37
2022/08/23 01:13:52;;;;;;;2.50;1.35;;;29.00;50.30;;;;;;10491022;28;20052;-39
2022/08/23 01:18:55;;;;;;;3.70;1.42;;;29.00;54.40;;;;;;10481390;28;20430;-38
2022/08/23 01:24:02;;;;;;;1.77;1.23;;;29.00;53.50;;;;;;10485367;28;20095;-41
2022/08/23 01:29:06;;;;;;;3.25;1.40;;;28.90;50.30;;;;;;10482358;28;20055;-41
2022/08/23 01:34:11;;;;;;;2.38;1.10;;;28.90;50.40;;;;;;10487582;28;20070;-38
2022/08/23 01:39:14;;;;;;;2.40;1.25;;;28.80;50.40;;;;;;10488264;28;20056;-42
2022/08/23 01:44:16;;;;;;;2.63;1.42;;;28.80;50.50;;;;;;10489791;28;20493;-43
2022/08/23 01:49:18;;;;;;;2.35;1.27;;;28.80;50.50;;;;;;10483298;28;20705;-40
2022/08/23 01:54:21;;;;;;;2.20;1.40;;;28.70;50.50;;;;;;10490689;28;20060;-38
2022/08/23 01:59:24;;;;;;;1.88;1.30;;;28.70;50.60;;;;;;10482127;28;20068;-41
2022/08/23 02:04:26;;;;;;;3.35;1.70;;;28.70;50.60;;;;;;10472061;28;20044;-41
2022/08/23 02:09:30;;;;;;;2.42;1.27;;;28.70;50.80;;;;;;10486456;28;20426;-37
2022/08/23 02:14:32;;;;;;;2.70;1.52;;;28.90;50.90;;;;;;10479913;28;20052;-40
2022/08/23 02:19:36;;;;;;;4.13;1.50;;;28.60;50.60;;;;;;10480247;28;20137;-43
2022/08/23 02:24:43;;;;;;;2.97;1.20;;;28.60;50.60;;;;;;10481607;28;20625;-39
2022/08/23 02:29:46;;;;;;;2.00;1.50;;;28.60;50.60;;;;;;10483816;28;20136;-41
2022/08/23 02:34:48;;;;;;;3.13;1.70;;;28.60;53.10;;;;;;10476356;28;20642;-38
2022/08/23 02:39:52;;;;;;;2.45;1.45;;;28.60;58.30;;;;;;10467492;28;20510;-43
2022/08/23 02:44:54;;;;;;;2.00;1.33;;;28.50;50.80;;;;;;10480007;28;20071;-43
2022/08/23 02:49:56;;;;;;;3.05;1.27;;;28.50;51.40;;;;;;10479551;28;20044;-41
2022/08/23 02:54:59;;;;;;;2.58;1.48;;;28.80;52.30;;;;;;10485124;28;20540;-41
2022/08/23 03:00:01;;;;;;;3.42;1.50;;;28.50;51.60;;;;;;10482714;28;20502;-42
2022/08/23 03:05:03;;;;;;;4.28;1.30;;;28.70;51.20;;;;;;10489914;28;20478;-35
2022/08/23 03:10:08;;;;;;;4.30;1.98;;;28.40;51.00;;;;;;10472414;28;20055;-41
2022/08/23 03:15:11;;;;;;;2.65;1.50;;;28.30;51.00;;;;;;10475012;28;20065;-40
2022/08/23 03:20:13;;;;;;;2.63;1.35;;;28.40;51.40;;;;;;10471682;28;20392;-42
2022/08/23 03:25:16;;;;;;;2.13;1.40;;;28.30;51.30;;;;;;10480878;28;20088;-41
2022/08/23 03:30:18;;;;;;;3.20;1.80;;;28.30;51.30;;;;;;10483428;28;20048;-42
2022/08/23 03:35:20;;;;;;;1.63;1.20;;;28.30;51.50;;;;;;10472182;28;20052;-41
2022/08/23 03:40:24;;;;;;;3.63;1.40;;;28.30;51.30;;;;;;10492139;28;20515;-39
2022/08/23 03:45:26;;;;;;;4.00;1.40;;;28.20;51.20;;;;;;10484246;28;20465;-42
2022/08/23 03:50:28;;;;;;;4.03;1.67;;;28.40;51.40;;;;;;10476690;28;20047;-39
2022/08/23 03:55:31;;;;;;;4.15;1.95;;;28.10;51.20;;;;;;10483054;28;20160;-41
2022/08/23 04:00:33;;;;;;;2.72;1.35;;;28.70;51.70;;;;;;10491815;28;20044;-41
2022/08/23 04:05:35;;;;;;;3.22;1.55;;;28.10;51.30;;;;;;10495820;28;20084;-40
2022/08/23 04:10:39;;;;;;;2.10;1.52;;;28.30;51.50;;;;;;10494051;28;20054;-41
2022/08/23 04:15:41;;;;;;;2.67;1.55;;;28.10;51.40;;;;;;10469650;28;20407;-41
2022/08/23 04:20:43;;;;;;;4.03;1.92;;;28.20;52.50;;;;;;10477473;28;20544;-42
2022/08/23 04:25:47;;;;;;;6.20;2.00;;;28.10;53.00;;;;;;10491704;28;20057;-42
2022/08/23 04:30:49;;;;;;;4.80;1.90;;;28.20;52.70;;;;;;10491517;28;20071;-42
2022/08/23 04:35:51;;;;;;;4.25;1.80;;;28.40;52.90;;;;;;10489391;28;20045;-41
2022/08/23 04:46:15;;;;;;;4.15;1.77;;;28.00;53.20;;;;;;10492459;28;20127;-41
2022/08/23 04:51:18;;;;;;;4.40;1.98;;;28.00;51.80;;;;;;10487031;28;20064;-40
2022/08/23 04:56:22;;;;;;;5.25;2.08;;;27.90;53.10;;;;;;10481692;28;20076;-39
2022/08/23 05:01:24;;;;;;;6.90;2.35;;;28.40;52.20;;;;;;10489157;28;20039;-43
2022/08/23 05:06:26;;;;;;;5.22;1.88;;;28.00;52.00;;;;;;10489240;28;20045;-40
2022/08/23 05:11:29;;;;;;;8.52;2.25;;;28.00;53.90;;;;;;10485900;28;20501;-44
2022/08/23 05:16:31;;;;;;;4.13;2.15;;;27.90;52.30;;;;;;10469294;28;20076;-43
2022/08/23 05:21:32;;;;;;;4.63;2.10;;;27.90;52.30;;;;;;10489071;28;20048;-41
2022/08/23 05:26:36;;;;;;;6.07;2.47;;;27.80;52.20;;;;;;10486736;28;20072;-41
2022/08/23 05:31:38;;;;;;;6.25;2.17;;;28.00;52.40;;;;;;10472582;28;20493;-39
2022/08/23 05:36:40;;;;;;;8.15;3.03;;;27.90;52.50;;;;;;10486516;28;20053;-38
2022/08/23 05:41:44;;;;;;;4.00;2.10;;;27.90;54.30;;;;;;10488085;28;20052;-44
2022/08/23 05:46:45;;;;;;;4.85;2.28;;;27.90;54.80;;;;;;10478724;28;20045;-42
2022/08/23 05:51:47;;;;;;;6.70;2.17;;;28.40;54.70;;;;;;10479079;28;20068;-42
2022/08/23 05:56:50;;;;;;;3.42;2.00;;;27.90;52.50;;;;;;10473311;28;20155;-40
2022/08/23 06:01:52;;;;;;;3.28;2.45;;;27.90;53.60;;;;;;10480107;28;20044;-42
2022/08/23 06:06:57;;;;;;;5.57;2.25;;;27.90;53.20;;;;;;10483768;28;20118;-42
2022/08/23 06:12:00;;;;;;;3.67;1.88;;;28.50;54.10;;;;;;10478358;28;20040;-41
2022/08/23 06:17:02;;;;;;;6.03;2.00;;;27.90;54.00;;;;;;10479741;28;20072;-36
2022/08/23 06:22:04;;;;;;;3.85;1.77;;;28.10;53.80;;;;;;10481571;28;20094;-42
2022/08/23 06:27:08;;;;;;;2.80;1.90;;;27.90;53.80;;;;;;10481656;28;20052;-44
2022/08/23 06:32:09;;;;;;;5.40;1.50;;;27.80;53.70;;;;;;10498370;28;20135;-39
2022/08/23 06:37:14;;;;;;;3.42;1.50;;;27.80;53.70;;;;;;10488500;28;20044;-43
2022/08/23 06:42:17;;;;;;;2.25;1.27;;;27.80;53.60;;;;;;10481952;28;20107;-42
2022/08/23 06:47:19;;;;;;;2.92;1.45;;;27.80;53.40;;;;;;10479292;28;20097;-43
2022/08/23 06:52:21;;;;;;;2.40;1.15;;;27.90;53.50;;;;;;10476393;28;20102;-42
2022/08/23 06:57:24;;;;;;;2.95;1.33;;;27.90;53.60;;;;;;10491790;28;20076;-43
2022/08/23 07:02:26;;;;;;;1.95;1.05;;;28.20;54.50;;;;;;10497801;28;20075;-37
2022/08/23 07:07:28;;;;;;;3.97;1.52;;;27.80;54.50;;;;;;10484411;28;20063;-43
2022/08/23 07:12:31;;;;;;;2.53;1.30;;;28.00;54.30;;;;;;10471662;28;20052;-42
2022/08/23 07:17:33;;;;;;;6.40;1.73;;;27.80;53.40;;;;;;10481243;28;20564;-40
2022/08/23 07:22:35;;;;;;;2.33;1.38;;;27.50;54.10;;;;;;10481976;28;20507;-41
2022/08/23 07:27:39;;;;;;;5.10;1.10;;;27.70;54.30;;;;;;10488216;28;20543;-40
2022/08/23 07:32:41;;;;;;;4.07;2.58;;;27.80;54.10;;;;;;10487279;28;20059;-42
2022/08/23 07:37:43;;;;;;;11.65;2.40;;;27.90;54.00;;;;;;10494301;28;20048;-45
2022/08/23 07:42:46;;;;;;;4.40;1.85;;;27.80;53.90;;;;;;10478615;28;20643;-41
2022/08/23 07:47:48;;;;;;;3.50;1.70;;;27.40;53.60;;;;;;10489689;28;20045;-39
2022/08/23 07:52:50;;;;;;;3.70;2.13;;;27.30;55.40;;;;;;10484036;28;20056;-42
2022/08/23 07:57:53;;;;;;;3.70;1.83;;;27.50;54.90;;;;;;10486132;28;20049;-43
2022/08/23 08:02:55;;;;;;;4.15;1.33;;;27.50;55.60;;;;;;10473673;28;20112;-43
2022/08/23 08:07:57;;;;;;;3.08;1.52;;;27.60;54.40;;;;;;10467809;28;20056;-40
2022/08/23 08:13:00;;;;;;;2.17;1.30;;;28.10;54.20;;;;;;10485160;28;20052;-40
2022/08/23 08:18:02;;;;;;;2.83;1.40;;;26.80;56.20;;;;;;10482967;28;20144;-40
2022/08/23 08:23:05;;;;;;;6.07;1.52;;;27.40;54.80;;;;;;10492584;28;20045;-43
2022/08/23 08:28:08;;;;;;;1.45;0.95;;;27.20;55.10;;;;;;10491179;28;20071;-42
2022/08/23 08:33:10;;;;;;;2.50;1.05;;;27.10;55.30;;;;;;10492963;28;20430;-42
2022/08/23 08:38:11;;;;;;;3.47;1.10;;;27.00;56.60;;;;;;10492210;28;20136;-42
2022/08/23 08:43:36;;;;;;;3.83;1.00;;;26.70;56.80;;;;;;10490468;28;20123;-43
2022/08/23 08:48:43;;;;;;;1.63;0.93;;;27.60;56.40;;;;;;10491394;28;20048;-40
2022/08/23 08:53:48;;;;;;;1.20;0.75;;;27.60;54.20;;;;;;10491552;28;20056;-41
2022/08/23 08:58:53;;;;;;;1.42;1.10;;;27.80;53.90;;;;;;10491801;28;20072;-37
2022/08/23 09:03:56;;;;;;;2.05;1.10;;;27.60;53.80;;;;;;10484575;28;20080;-42
2022/08/23 09:09:11;;;;;;;2.50;1.30;;;28.30;53.60;;;;;;10489540;28;20093;-42
2022/08/23 09:14:28;;;;;;;1.83;0.50;;;28.30;53.00;;;;;;10482246;28;20168;-41
2022/08/23 09:19:34;;;;;;;3.80;1.05;;;27.60;54.30;;;;;;10493658;28;20068;-36
2022/08/23 09:24:36;;;;;;;0.95;0.77;;;27.90;54.00;;;;;;10490599;28;20106;-41
2022/08/23 09:29:50;;;;;;;2.08;0.82;;;27.80;54.00;;;;;;10489320;28;20053;-42
2022/08/23 09:34:54;;;;;;;1.20;0.80;;;28.00;53.90;;;;;;10487866;28;20088;-40
2022/08/23 09:40:15;;;;;;;2.05;1.20;;;28.30;53.10;;;;;;10484112;28;20083;-42
2022/08/23 09:45:28;;;;;;;1.83;0.65;;;28.50;52.70;;;;;;10483373;28;20715;-40
2022/08/23 09:50:34;;;;;;;1.85;0.50;;;28.50;52.80;;;;;;10489783;28;20114;-44
2022/08/23 09:55:39;;;;;;;0.85;0.73;;;28.40;52.80;;;;;;10482374;28;20087;-41
2022/08/23 10:00:43;;;;;;;1.17;0.77;;;28.50;52.80;;;;;;10486103;28;20048;-44
2022/08/23 10:05:50;;;;;;;1.67;0.80;;;29.30;53.90;;;;;;10483585;28;20075;-44
2022/08/23 10:10:56;;;;;;;0.98;0.55;;;29.20;52.70;;;;;;10481570;28;20457;-41
2022/08/23 10:16:10;;;;;;;0.85;0.70;;;29.10;53.20;;;;;;10457418;28;20067;-39
2022/08/23 10:21:20;;;;;;;2.25;0.70;;;29.00;53.10;;;;;;10478162;28;20048;-40
2022/08/23 10:26:27;;;;;;;1.37;0.90;;;29.40;54.90;;;;;;10483371;28;20496;-41
2022/08/23 10:31:37;;;;;;;8.98;1.80;;;29.00;55.50;;;;;;10471278;28;20124;-42
2022/08/23 10:36:50;;;;;;;1.50;0.67;;;27.40;57.10;;;;;;10476070;28;20116;-43
2022/08/23 10:41:58;;;;;;;1.52;0.68;;;28.60;54.90;;;;;;10473389;28;20522;-41
2022/08/23 10:47:18;;;;;;;1.35;0.63;;;28.90;54.30;;;;;;10470065;28;20114;-42
2022/08/23 10:52:24;;;;;;;0.85;0.60;;;29.10;53.10;;;;;;10468477;28;20056;-40
2022/08/23 10:57:33;;;;;;;2.25;1.25;;;28.90;53.70;;;;;;10469310;28;20052;-42
2022/08/23 11:02:42;;;;;;;3.47;1.42;;;28.30;55.30;;;;;;10480605;28;20052;-40
2022/08/23 11:07:57;;;;;;;4.85;2.00;;;28.20;57.80;;;;;;10493872;28;20129;-41
2022/08/23 11:13:01;;;;;;;1.33;0.75;;;28.10;58.10;;;;;;10488974;28;20076;-41
2022/08/23 11:18:07;;;;;;;3.15;1.33;;;28.60;55.60;;;;;;10496317;28;20056;-37
2022/08/23 11:23:15;;;;;;;0.88;0.63;;;29.00;55.10;;;;;;10494887;28;20043;-36
2022/08/23 11:28:38;;;;;;;7.88;2.33;;;29.30;53.70;;;;;;10487688;28;20036;-43
2022/08/23 11:33:47;;;;;;;2.80;1.73;;;28.50;55.60;;;;;;10468711;28;20048;-38
2022/08/23 11:39:10;;;;;;;5.53;2.38;;;28.10;58.40;;;;;;10494520;28;20076;-41
2022/08/23 11:44:26;;;;;;;1.33;0.80;;;28.40;56.80;;;;;;10488471;28;20099;-40
2022/08/23 11:50:06;;;;;;;6.63;2.55;;;28.90;55.90;;;;;;10479037;28;20072;-41
2022/08/23 11:55:23;;;;;;;5.38;1.70;;;28.30;56.90;;;;;;10483712;28;20052;-42
2022/08/23 12:00:33;;;;;;;5.97;1.60;;;28.10;58.80;;;;;;10489246;28;20072;-38
2022/08/23 12:06:10;;;;;;;5.65;1.40;;;27.80;60.00;;;;;;10495418;28;20055;-38
2022/08/23 12:11:17;;;;;;;4.88;1.67;;;27.20;61.00;;;;;;10481144;28;20044;-40
2022/08/23 12:16:32;;;;;;;11.25;3.25;;;27.60;59.70;;;;;;10490101;28;20554;-38
2022/08/23 12:21:44;;;;;;;3.53;1.83;;;27.10;62.60;;;;;;10486808;28;20573;-43
2022/08/23 12:26:49;;;;;;;;;;;27.70;61.90;;;;;;10489407;28;20051;-38
2022/08/23 12:31:57;;;;;;;2.13;1.25;;;27.70;63.30;;;;;;10470397;28;20352;-39
2022/08/23 12:37:09;;;;;;;5.68;2.90;;;28.10;59.30;;;;;;10491168;28;20059;-37
2022/08/23 12:42:15;;;;;;;6.57;2.80;;;27.40;65.60;;;;;;10487609;28;20044;-44
2022/08/23 12:47:20;;;;;;;6.15;3.00;;;28.30;61.90;;;;;;10486269;28;20131;-43
2022/08/23 12:52:27;;;;;;;3.83;1.85;;;28.30;62.80;;;;;;10483110;28;20053;-41
2022/08/23 12:57:35;;;;;;;7.32;3.75;;;28.00;64.10;;;;;;10499064;28;20049;-36
2022/08/23 13:02:38;;;;;;;5.68;3.05;;;28.20;64.20;;;;;;10487396;28;20527;-40
2022/08/23 13:07:42;;;;;;;2.92;1.23;;;28.30;63.80;;;;;;10487250;28;20052;-39
2022/08/23 13:12:44;;;;;;;8.43;4.30;;;29.20;59.70;;;;;;10487325;28;20076;-41
2022/08/23 13:17:46;;;;;;;11.07;3.97;;;28.60;61.00;;;;;;10484954;28;20114;-41
2022/08/23 13:23:04;;;;;;;6.45;2.42;;;28.70;60.60;;;;;;10482169;28;20052;-43
2022/08/23 13:28:22;;;;;;;8.15;3.03;;;29.70;57.70;;;;;;10481019;28;20519;-39
2022/08/23 13:33:23;;;;;;;7.07;2.40;;;29.80;59.10;;;;;;10480414;28;20044;-42
2022/08/23 13:38:32;;;;;;;3.58;1.75;;;30.60;57.70;;;;;;10487041;28;20047;-42
2022/08/23 13:43:37;;;;;;;2.55;1.48;;;30.70;58.20;;;;;;10488447;28;20075;-42
2022/08/23 13:48:46;;;;;;;9.63;2.60;;;30.40;57.40;;;;;;10488023;28;20059;-44
2022/08/23 13:53:49;;;;;;;3.60;1.35;;;31.10;56.30;;;;;;10497540;28;20498;-37
2022/08/23 13:58:56;;;;;;;7.15;1.30;;;30.60;57.80;;;;;;10494471;28;20106;-42
2022/08/23 14:03:58;;;;;;;2.22;1.30;;;31.80;55.50;;;;;;10491355;28;20059;-41
2022/08/23 14:09:01;;;;;;;5.10;1.25;;;30.90;57.70;;;;;;10486788;28;20072;-38
2022/08/23 14:14:04;;;;;;;18.15;1.30;;;31.00;58.00;;;;;;10493206;28;20048;-35
2022/08/23 14:19:09;;;;;;;0.75;0.70;;;30.90;57.70;;;;;;10499821;28;20461;-38
2022/08/23 14:24:12;;;;;;;2.20;1.40;;;31.00;57.90;;;;;;10481147;28;20040;-38
2022/08/23 14:29:14;;;;;;;1.67;1.20;;;30.40;60.70;;;;;;10488595;28;20071;-41
2022/08/23 14:34:16;;;;;;;3.30;1.42;;;31.00;59.70;;;;;;10505318;28;20047;-40
2022/08/23 14:39:19;;;;;;;3.45;1.45;;;31.10;57.50;;;;;;10480249;28;20526;-40
2022/08/23 14:44:21;;;;;;;1.00;0.93;;;31.20;59.40;;;;;;10481061;28;20049;-39
2022/08/23 14:49:23;;;;;;;1.60;1.20;;;31.70;57.50;;;;;;10486147;28;20049;-41
2022/08/23 14:54:26;;;;;;;1.73;0.82;;;31.60;58.20;;;;;;10485355;28;20131;-40
2022/08/23 14:59:28;;;;;;;1.17;0.70;;;32.10;55.50;;;;;;10482064;28;20639;-37
2022/08/23 15:04:30;;;;;;;1.10;1.00;;;32.70;56.80;;;;;;10485372;28;20053;-41
2022/08/23 15:09:34;;;;;;;3.17;1.00;;;32.30;56.20;;;;;;10483680;28;20087;-39
2022/08/23 15:14:36;;;;;;;2.70;1.40;;;32.90;56.40;;;;;;10481081;28;20071;-38
2022/08/23 15:19:38;;;;;;;1.42;0.80;;;32.30;55.50;;;;;;10479885;28;20555;-41
2022/08/23 15:24:41;;;;;;;5.38;1.42;;;32.90;56.10;;;;;;10482646;28;20076;-39
2022/08/23 15:29:43;;;;;;;5.25;1.50;;;33.10;58.90;;;;;;10478364;28;20053;-44
2022/08/23 15:34:45;;;;;;;1.10;1.00;;;33.70;57.20;;;;;;10486930;28;20056;-41
2022/08/23 15:39:48;;;;;;;2.63;1.52;;;34.30;57.00;;;;;;10484800;28;20071;-42
2022/08/23 15:44:50;;;;;;;1.10;1.00;;;34.10;55.20;;;;;;10483283;28;20072;-40
2022/08/23 15:49:52;;;;;;;2.25;1.25;;;34.50;56.00;;;;;;10486047;28;20044;-39
2022/08/23 15:54:55;;;;;;;2.10;1.17;;;34.60;52.00;;;;;;10485581;28;20052;-39
2022/08/23 15:59:58;;;;;;;2.25;0.88;;;34.60;51.60;;;;;;10486473;28;20555;-37
2022/08/23 16:05:00;;;;;;;1.67;1.20;;;34.50;50.80;;;;;;10480609;28;20083;-41
2022/08/23 16:10:05;;;;;;;2.92;0.73;;;33.90;55.60;;;;;;10486976;28;20127;-37
2022/08/23 16:15:08;;;;;;;0.80;0.70;;;34.20;55.60;;;;;;10488652;28;20045;-39
2022/08/23 16:20:11;;;;;;;1.10;0.82;;;34.30;55.90;;;;;;10487593;28;20636;-41
2022/08/23 16:25:15;;;;;;;1.40;0.60;;;34.80;51.10;;;;;;10475752;28;20052;-40
2022/08/23 16:30:17;;;;;;;7.97;1.55;;;34.50;58.90;;;;;;10488306;28;20071;-36
2022/08/23 16:35:19;;;;;;;1.42;1.33;;;35.50;51.60;;;;;;10487252;28;20094;-37
2022/08/23 16:40:22;;;;;;;1.67;0.70;;;35.70;52.70;;;;;;10488461;28;20113;-39
2022/08/23 16:45:24;;;;;;;2.63;1.10;;;35.50;60.80;;;;;;10474066;28;20131;-38
2022/08/23 16:50:26;;;;;;;1.35;0.63;;;36.20;52.60;;;;;;10482492;28;20060;-41
2022/08/23 16:55:29;;;;;;;0.90;0.77;;;35.50;56.40;;;;;;10484654;28;20512;-35
2022/08/23 17:00:31;;;;;;;0.85;0.60;;;35.20;51.90;;;;;;10486803;28;20438;-41
2022/08/23 17:05:33;;;;;;;2.05;0.85;;;35.60;55.20;;;;;;10489405;28;20466;-41
2022/08/23 17:10:37;;;;;;;2.70;1.33;;;35.90;58.20;;;;;;10481070;28;20458;-41
2022/08/23 17:15:39;;;;;;;1.50;0.90;;;35.40;54.60;;;;;;10490677;28;20045;-41
2022/08/23 17:20:41;;;;;;;0.98;0.70;;;31.80;52.40;;;;;;10496068;28;20048;-42
2022/08/23 17:25:46;;;;;;;1.65;0.75;;;35.20;52.40;;;;;;10484366;28;20052;-41
2022/08/23 17:30:48;;;;;;;0.60;0.55;;;35.00;56.10;;;;;;10487496;28;20041;-38
2022/08/23 17:35:50;;;;;;;1.08;0.80;;;34.90;54.50;;;;;;10488614;28;20040;-39
2022/08/23 17:40:54;;;;;;;1.15;0.80;;;34.90;58.80;;;;;;10482691;28;20140;-43
2022/08/23 17:45:56;;;;;;;0.93;0.60;;;35.30;56.90;;;;;;10475130;28;20041;-39
2022/08/23 17:50:58;;;;;;;1.70;0.70;;;34.90;55.70;;;;;;10476887;28;20137;-41
2022/08/23 17:56:02;;;;;;;1.13;0.57;;;34.70;54.30;;;;;;10490360;28;20056;-39
2022/08/23 18:01:04;;;;;;;1.58;0.60;;;34.70;54.70;;;;;;10487279;28;20049;-43
2022/08/23 18:06:07;;;;;;;1.80;0.60;;;34.60;54.80;;;;;;10487935;28;20041;-39
2022/08/23 18:11:10;;;;;;;3.20;0.65;;;33.10;57.40;;;;;;10485455;28;20050;-40
2022/08/23 18:16:13;;;;;;;1.73;0.63;;;34.30;56.90;;;;;;10484189;28;20083;-42
2022/08/23 18:21:14;;;;;;;0.50;0.50;;;34.00;57.20;;;;;;10475171;28;20100;-42
2022/08/23 18:31:40;;;;;;;2.33;0.50;;;33.10;56.30;;;;;;10469327;28;20497;-44
2022/08/23 18:36:43;;;;;;;1.73;0.57;;;33.00;57.80;;;;;;10483026;28;20102;-36
2022/08/23 18:41:46;;;;;;;1.02;0.45;;;33.20;56.50;;;;;;10479665;28;20477;-39
2022/08/23 18:46:48;;;;;;;1.05;0.82;;;33.20;56.00;;;;;;10485180;28;20044;-43
2022/08/23 18:51:50;;;;;;;0.95;0.50;;;33.30;55.50;;;;;;10470503;28;20056;-42
2022/08/23 18:56:53;;;;;;;0.43;0.28;;;33.50;54.90;;;;;;10479072;28;20075;-44
2022/08/23 19:01:56;;;;;;;0.70;0.43;;;33.40;53.90;;;;;;10487295;28;20420;-44
2022/08/23 19:06:58;;;;;;;0.63;0.30;;;33.30;53.40;;;;;;10483314;28;20473;-43
2022/08/23 19:12:01;;;;;;;1.67;0.38;;;33.20;53.00;;;;;;10487710;28;20394;-44
2022/08/23 19:17:06;;;;;;;1.63;0.65;;;33.00;52.80;;;;;;10483116;28;20091;-40
2022/08/23 19:22:08;;;;;;;0.90;0.50;;;33.00;52.80;;;;;;10475092;28;20073;-43
2022/08/23 19:27:13;;;;;;;0.90;0.50;;;32.80;52.60;;;;;;10486362;28;20083;-37
2022/08/23 19:32:15;;;;;;;3.25;0.50;;;32.70;52.60;;;;;;10481942;28;20087;-41
2022/08/23 19:37:17;;;;;;;1.17;0.50;;;32.70;52.60;;;;;;10483392;28;20155;-42
2022/08/23 19:42:21;;;;;;;2.95;0.50;;;32.60;52.60;;;;;;10484492;28;20074;-41
2022/08/23 19:47:22;;;;;;;0.93;0.45;;;32.50;52.60;;;;;;10485255;28;20060;-42
2022/08/23 19:52:24;;;;;;;1.40;0.40;;;32.50;52.60;;;;;;10488610;28;20610;-42
2022/08/23 19:57:28;;;;;;;1.63;0.68;;;32.40;52.50;;;;;;10485140;28;20084;-43
2022/08/23 20:02:29;;;;;;;1.73;0.50;;;32.30;52.70;;;;;;10485690;28;20048;-46
2022/08/23 20:07:31;;;;;;;6.53;0.50;;;32.30;52.60;;;;;;10495056;28;20131;-39
2022/08/23 20:12:35;;;;;;;1.10;0.43;;;32.20;52.60;;;;;;10488946;28;20079;-44
2022/08/23 20:17:38;;;;;;;1.25;0.60;;;32.10;52.50;;;;;;10488238;28;20272;-42
2022/08/23 20:28:03;;;;;;;1.13;0.60;;;32.00;52.70;;;;;;10480510;28;20041;-45
2022/08/23 20:33:05;;;;;;;3.90;0.82;;;32.10;52.90;;;;;;10486179;28;20055;-43
2022/08/23 20:38:07;;;;;;;1.27;0.70;;;32.00;53.00;;;;;;10487014;28;20060;-41
2022/08/23 20:43:10;;;;;;;2.38;0.80;;;31.90;53.10;;;;;;10476819;28;20122;-41
2022/08/23 20:48:12;;;;;;;0.90;0.75;;;31.90;53.00;;;;;;10489526;28;20072;-46
2022/08/23 20:53:14;;;;;;;1.17;0.82;;;31.90;53.20;;;;;;10481031;28;20075;-41
2022/08/23 20:58:17;;;;;;;2.65;0.60;;;31.80;53.20;;;;;;10479981;28;20072;-42
2022/08/23 21:03:20;;;;;;;3.05;0.80;;;31.70;53.30;;;;;;10487069;28;20547;-37
2022/08/23 21:08:21;;;;;;;1.17;0.70;;;31.70;53.30;;;;;;10483235;28;20493;-43
2022/08/23 21:13:25;;;;;;;1.48;0.88;;;31.70;53.40;;;;;;10485653;28;20515;-45
2022/08/23 21:18:27;;;;;;;1.40;0.50;;;31.60;53.50;;;;;;10480546;28;20382;-42
2022/08/23 21:23:29;;;;;;;1.05;0.57;;;31.50;53.50;;;;;;10485268;28;20121;-41
2022/08/23 21:28:32;;;;;;;2.08;1.27;;;31.50;53.50;;;;;;10489407;28;20044;-41
2022/08/23 21:33:34;;;;;;;3.25;1.42;;;31.40;53.60;;;;;;10486664;28;20109;-41
2022/08/23 21:38:37;;;;;;;2.75;1.80;;;31.40;53.60;;;;;;10485206;28;20581;-42
2022/08/23 21:43:42;;;;;;;2.05;1.83;;;31.30;53.60;;;;;;10471627;28;20092;-40
2022/08/23 21:48:44;;;;;;;3.10;1.83;;;31.30;53.70;;;;;;10471216;28;20070;-42
2022/08/23 21:53:46;;;;;;;2.90;1.95;;;31.20;53.70;;;;;;10485415;28;20075;-44
2022/08/23 21:58:49;;;;;;;4.57;2.13;;;31.20;53.80;;;;;;10480923;28;20408;-41
2022/08/23 22:03:51;;;;;;;2.00;1.65;;;31.20;53.90;;;;;;10482067;28;20106;-43
2022/08/23 22:08:53;;;;;;;2.17;1.50;;;31.10;53.90;;;;;;10485921;28;20473;-43
2022/08/23 22:13:57;;;;;;;5.00;1.95;;;31.00;53.90;;;;;;10488858;28;20052;-40
2022/08/23 22:18:58;;;;;;;2.63;1.85;;;31.00;54.00;;;;;;10496688;28;20086;-39
2022/08/23 22:24:00;;;;;;;2.03;1.48;;;31.00;54.10;;;;;;10479366;28;20102;-42
2022/08/23 22:29:04;;;;;;;2.97;1.48;;;30.90;54.00;;;;;;10481085;28;20485;-41
2022/08/23 22:34:08;;;;;;;2.13;1.63;;;30.90;54.10;;;;;;10492993;28;20052;-41
2022/08/23 22:39:11;;;;;;;1.65;1.33;;;30.80;54.10;;;;;;10484908;28;20101;-38
2022/08/23 22:44:14;;;;;;;5.00;1.60;;;30.80;54.20;;;;;;10482497;28;20607;-42
2022/08/23 22:49:16;;;;;;;3.47;2.00;;;30.70;54.20;;;;;;10488028;28;20120;-41
2022/08/23 22:54:19;;;;;;;2.30;1.77;;;30.70;54.20;;;;;;10477660;28;20040;-41
2022/08/23 22:59:24;;;;;;;2.58;1.55;;;30.70;54.30;;;;;;10484874;28;20083;-41
2022/08/23 23:04:27;;;;;;;2.90;1.67;;;30.60;54.40;;;;;;10486604;28;20123;-41
2022/08/23 23:09:29;;;;;;;3.17;1.77;;;30.50;54.30;;;;;;10500785;28;20037;-42
2022/08/23 23:14:32;;;;;;;2.50;1.67;;;30.50;54.40;;;;;;10492423;28;20072;-41
2022/08/23 23:24:53;;;;;;;2.92;1.30;;;30.40;54.40;;;;;;10484146;28;20512;-39
2022/08/23 23:29:56;;;;;;;3.40;1.33;;;30.40;54.40;;;;;;10487036;28;20072;-39
2022/08/23 23:34:58;;;;;;;2.50;1.48;;;30.40;54.50;;;;;;10484991;28;20072;-37
2022/08/23 23:40:00;;;;;;;1.63;1.20;;;30.30;54.50;;;;;;10478368;28;20051;-40
2022/08/23 23:45:04;;;;;;;1.90;1.38;;;30.30;54.60;;;;;;10490333;28;20524;-39
2022/08/23 23:50:07;;;;;;;2.13;1.40;;;30.20;54.60;;;;;;10474674;28;20084;-40
2022/08/23 23:55:13;;;;;;;1.55;1.20;;;30.20;54.60;;;;;;10470363;28;20037;-40
